createdAt,value
2019-05-13T00:00:00.703Z,5.72
2019-05-13T00:01:00.671Z,5.63
2019-05-13T00:02:00.640Z,5.65
2019-05-13T00:03:00.611Z,5.51
2019-05-13T00:04:00.581Z,5.57
2019-05-13T00:05:00.552Z,5.45
2019-05-13T00:06:00.520Z,5.39
2019-05-13T00:07:00.490Z,5.43
2019-05-13T00:08:00.460Z,5.46
2019-05-13T00:09:00.431Z,5.49
2019-05-13T00:10:00.398Z,5.49
2019-05-13T00:11:00.369Z,5.63
2019-05-13T00:12:00.354Z,5.64
2019-05-13T00:13:00.310Z,5.58
2019-05-13T00:14:00.277Z,5.54
2019-05-13T00:15:00.248Z,5.45
2019-05-13T00:16:00.217Z,5.43
2019-05-13T00:17:00.188Z,5.45
2019-05-13T00:18:00.155Z,5.48
2019-05-13T00:19:00.125Z,5.45
2019-05-13T00:20:00.094Z,5.40
2019-05-13T00:21:00.070Z,5.45
2019-05-13T00:22:00.034Z,5.42
2019-05-13T00:23:00.005Z,5.51
2019-05-13T00:23:59.973Z,5.42
2019-05-13T00:24:59.943Z,5.46
2019-05-13T00:25:59.911Z,5.43
2019-05-13T00:26:59.882Z,5.31
2019-05-13T00:27:59.852Z,5.25
2019-05-13T00:28:59.820Z,5.24
2019-05-13T00:29:59.789Z,5.18
2019-05-13T00:30:59.758Z,5.21
2019-05-13T00:31:59.731Z,5.21
2019-05-13T00:32:59.698Z,5.17
2019-05-13T00:33:59.666Z,5.20
2019-05-13T00:34:59.636Z,5.22
2019-05-13T00:35:59.606Z,5.24
2019-05-13T00:37:08.899Z,5.25
2019-05-13T00:37:59.543Z,5.27
2019-05-13T00:38:59.513Z,5.24
2019-05-13T00:39:59.482Z,5.28
2019-05-13T00:40:59.454Z,5.24
2019-05-13T00:41:59.423Z,5.12
2019-05-13T00:42:59.390Z,5.12
2019-05-13T00:43:59.360Z,5.04
2019-05-13T00:44:59.329Z,5.06
2019-05-13T00:45:59.300Z,5.00
2019-05-13T00:46:59.266Z,5.03
2019-05-13T00:47:59.237Z,5.00
2019-05-13T00:48:59.207Z,4.92
2019-05-13T00:49:59.176Z,4.94
2019-05-13T00:50:59.144Z,4.85
2019-05-13T00:51:59.115Z,4.89
2019-05-13T00:52:59.083Z,4.85
2019-05-13T00:53:59.052Z,4.85
2019-05-13T00:54:59.022Z,4.85
2019-05-13T00:55:58.995Z,4.70
2019-05-13T00:56:58.960Z,4.72
2019-05-13T00:57:58.929Z,4.58
2019-05-13T00:58:58.904Z,4.58
2019-05-13T00:59:58.870Z,4.50
2019-05-13T01:00:58.839Z,4.41
2019-05-13T01:01:58.810Z,4.42
2019-05-13T01:02:58.777Z,4.37
2019-05-13T01:03:58.752Z,4.30
2019-05-13T01:04:58.718Z,4.37
2019-05-13T01:05:58.685Z,4.32
2019-05-13T01:06:58.654Z,4.32
2019-05-13T01:07:58.627Z,4.34
2019-05-13T01:08:58.593Z,4.37
2019-05-13T01:09:58.561Z,4.47
2019-05-13T01:10:58.530Z,4.41
2019-05-13T01:11:58.499Z,4.47
2019-05-13T01:12:58.470Z,4.41
2019-05-13T01:13:58.462Z,4.41
2019-05-13T01:14:58.406Z,4.30
2019-05-13T01:15:58.376Z,4.33
2019-05-13T01:16:58.350Z,4.33
2019-05-13T01:17:58.315Z,4.24
2019-05-13T01:18:58.282Z,4.24
2019-05-13T01:19:58.251Z,4.26
2019-05-13T01:20:58.219Z,4.15
2019-05-13T01:21:58.189Z,4.23
2019-05-13T01:22:58.157Z,4.14
2019-05-13T01:23:58.127Z,4.23
2019-05-13T01:24:58.096Z,4.20
2019-05-13T01:25:58.065Z,4.27
2019-05-13T01:26:58.033Z,4.33
2019-05-13T01:27:58.008Z,4.36
2019-05-13T01:28:57.971Z,4.30
2019-05-13T01:29:57.940Z,4.40
2019-05-13T01:30:57.909Z,4.42
2019-05-13T01:31:57.877Z,4.37
2019-05-13T01:32:57.846Z,4.40
2019-05-13T01:33:57.816Z,4.33
2019-05-13T01:34:57.788Z,4.27
2019-05-13T01:35:57.753Z,4.16
2019-05-13T01:36:57.730Z,4.20
2019-05-13T01:37:57.689Z,4.08
2019-05-13T01:38:57.659Z,4.11
2019-05-13T01:39:57.630Z,4.11
2019-05-13T01:40:57.599Z,4.09
2019-05-13T01:41:57.566Z,4.08
2019-05-13T01:42:57.534Z,3.97
2019-05-13T01:43:57.503Z,4.08
2019-05-13T01:44:57.478Z,4.11
2019-05-13T01:45:57.441Z,4.06
2019-05-13T01:46:57.409Z,4.14
2019-05-13T01:47:57.377Z,4.12
2019-05-13T01:48:57.346Z,4.12
2019-05-13T01:49:57.316Z,3.94
2019-05-13T01:50:57.282Z,4.00
2019-05-13T01:51:57.255Z,3.97
2019-05-13T01:52:57.221Z,3.96
2019-05-13T01:53:57.189Z,3.88
2019-05-13T01:54:57.159Z,3.83
2019-05-13T01:55:57.127Z,3.80
2019-05-13T01:56:57.097Z,3.76
2019-05-13T01:57:57.063Z,3.83
2019-05-13T01:58:57.032Z,3.76
2019-05-13T01:59:57.001Z,3.79
2019-05-13T02:00:56.970Z,3.68
2019-05-13T02:01:56.946Z,3.76
2019-05-13T02:02:56.908Z,3.58
2019-05-13T02:03:56.878Z,3.61
2019-05-13T02:04:56.856Z,3.65
2019-05-13T02:05:56.815Z,3.57
2019-05-13T02:06:56.781Z,3.72
2019-05-13T02:08:00.435Z,3.60
2019-05-13T02:08:56.720Z,3.61
2019-05-13T02:09:56.687Z,3.70
2019-05-13T02:10:56.655Z,3.61
2019-05-13T02:11:56.627Z,3.61
2019-05-13T02:12:56.594Z,3.60
2019-05-13T02:13:56.562Z,3.51
2019-05-13T02:14:56.529Z,3.50
2019-05-13T02:15:56.498Z,3.47
2019-05-13T02:16:56.469Z,3.36
2019-05-13T02:17:56.435Z,3.21
2019-05-13T02:18:56.403Z,3.15
2019-05-13T02:19:56.372Z,3.13
2019-05-13T02:20:56.342Z,3.10
2019-05-13T02:21:56.310Z,3.10
2019-05-13T02:22:56.277Z,3.08
2019-05-13T02:23:56.246Z,3.20
2019-05-13T02:24:56.214Z,3.10
2019-05-13T02:25:56.180Z,3.14
2019-05-13T02:26:56.150Z,3.11
2019-05-13T02:27:56.118Z,3.11
2019-05-13T02:28:56.087Z,3.08
2019-05-13T02:29:56.053Z,2.96
2019-05-13T02:30:57.034Z,3.14
2019-05-13T02:31:56.541Z,3.10
2019-05-13T02:32:55.960Z,3.08
2019-05-13T02:33:55.927Z,2.97
2019-05-13T02:34:55.896Z,3.02
2019-05-13T02:35:55.867Z,2.95
2019-05-13T02:36:55.834Z,2.90
2019-05-13T02:38:14.722Z,2.81
2019-05-13T02:38:55.770Z,2.72
2019-05-13T02:39:55.738Z,2.78
2019-05-13T02:40:55.708Z,2.67
2019-05-13T02:41:55.673Z,2.63
2019-05-13T02:42:55.643Z,2.56
2019-05-13T02:43:55.612Z,2.57
2019-05-13T02:44:55.588Z,2.53
2019-05-13T02:45:55.550Z,2.52
2019-05-13T02:46:55.534Z,2.59
2019-05-13T02:47:55.491Z,2.52
2019-05-13T02:48:55.453Z,2.38
2019-05-13T02:49:55.419Z,2.45
2019-05-13T02:50:55.388Z,2.60
2019-05-13T02:51:55.384Z,2.63
2019-05-13T02:52:55.324Z,2.67
2019-05-13T02:53:55.296Z,2.63
2019-05-13T02:54:55.260Z,2.64
2019-05-13T02:55:55.229Z,2.57
2019-05-13T02:56:55.197Z,2.54
2019-05-13T02:57:55.163Z,2.52
2019-05-13T02:58:55.135Z,2.56
2019-05-13T02:59:55.127Z,2.57
2019-05-13T03:00:55.080Z,2.59
2019-05-13T03:01:55.040Z,2.54
2019-05-13T03:02:55.007Z,2.63
2019-05-13T03:03:54.973Z,2.78
2019-05-13T03:04:54.952Z,2.72
2019-05-13T03:05:54.908Z,2.74
2019-05-13T03:06:54.881Z,2.75
2019-05-13T03:07:54.846Z,2.69
2019-05-13T03:08:54.863Z,2.69
2019-05-13T03:09:54.786Z,2.72
2019-05-13T03:10:54.764Z,2.74
2019-05-13T03:11:54.730Z,2.78
2019-05-13T03:12:54.687Z,2.67
2019-05-13T03:13:54.655Z,2.67
2019-05-13T03:14:54.666Z,2.63
2019-05-13T03:15:54.591Z,2.72
2019-05-13T03:16:54.557Z,2.77
2019-05-13T03:17:54.525Z,2.78
2019-05-13T03:18:54.494Z,2.78
2019-05-13T03:19:54.462Z,2.85
2019-05-13T03:20:54.430Z,2.81
2019-05-13T03:21:54.403Z,2.95
2019-05-13T03:22:54.367Z,2.96
2019-05-13T03:23:54.344Z,3.02
2019-05-13T03:24:54.343Z,2.97
2019-05-13T03:25:54.270Z,3.03
2019-05-13T03:26:54.242Z,2.99
2019-05-13T03:27:54.504Z,3.15
2019-05-13T03:28:54.174Z,3.13
2019-05-13T03:29:54.146Z,3.20
2019-05-13T03:30:56.228Z,3.15
2019-05-13T03:31:56.135Z,3.13
2019-05-13T03:33:01.143Z,3.17
2019-05-13T03:33:56.122Z,3.20
2019-05-13T03:34:56.638Z,3.14
2019-05-13T03:35:56.356Z,3.26
2019-05-13T03:36:57.127Z,3.42
2019-05-13T03:37:53.885Z,3.45
2019-05-13T03:39:05.287Z,3.45
2019-05-13T03:39:53.823Z,3.51
2019-05-13T03:40:53.792Z,3.42
2019-05-13T03:41:53.783Z,3.51
2019-05-13T03:42:53.972Z,3.40
2019-05-13T03:43:53.695Z,3.47
2019-05-13T03:44:53.664Z,3.51
2019-05-13T03:45:53.632Z,3.43
2019-05-13T03:46:53.599Z,3.58
2019-05-13T03:47:53.567Z,3.62
2019-05-13T03:48:53.549Z,3.57
2019-05-13T03:49:53.503Z,3.69
2019-05-13T03:50:53.811Z,3.73
2019-05-13T03:51:53.636Z,3.66
2019-05-13T03:52:53.409Z,3.58
2019-05-13T03:53:53.851Z,3.62
2019-05-13T03:54:53.344Z,3.55
2019-05-13T03:55:54.051Z,3.54
2019-05-13T03:56:53.281Z,3.58
2019-05-13T03:57:53.588Z,3.55
2019-05-13T03:58:53.827Z,3.66
2019-05-13T03:59:53.188Z,3.55
2019-05-13T04:00:53.164Z,3.65
2019-05-13T04:01:53.123Z,3.75
2019-05-13T04:02:53.107Z,3.73
2019-05-13T04:03:53.138Z,3.78
2019-05-13T04:04:53.369Z,3.78
2019-05-13T04:05:53.174Z,3.84
2019-05-13T04:06:53.264Z,3.86
2019-05-13T04:07:52.944Z,3.94
2019-05-13T04:08:53.899Z,4.02
2019-05-13T04:09:52.869Z,4.16
2019-05-13T04:10:52.838Z,4.20
2019-05-13T04:11:52.934Z,4.27
2019-05-13T04:12:53.167Z,4.32
2019-05-13T04:13:52.993Z,4.26
2019-05-13T04:14:53.035Z,4.44
2019-05-13T04:15:53.235Z,4.45
2019-05-13T04:16:53.397Z,4.48
2019-05-13T04:17:53.369Z,4.47
2019-05-13T04:18:53.690Z,4.52
2019-05-13T04:19:53.067Z,4.52
2019-05-13T04:20:53.171Z,4.52
2019-05-13T04:21:52.947Z,4.59
2019-05-13T04:22:53.279Z,4.59
2019-05-13T04:23:53.306Z,4.58
2019-05-13T04:24:53.151Z,4.58
2019-05-13T04:25:53.635Z,4.65
2019-05-13T04:26:53.345Z,4.52
2019-05-13T04:27:52.529Z,4.65
2019-05-13T04:28:52.718Z,4.67
2019-05-13T04:29:52.864Z,4.72
2019-05-13T04:30:52.757Z,4.77
2019-05-13T04:31:53.209Z,4.78
2019-05-13T04:32:53.278Z,4.85
2019-05-13T04:33:53.139Z,4.86
2019-05-13T04:34:53.015Z,4.91
2019-05-13T04:35:53.015Z,4.92
2019-05-13T04:36:52.177Z,5.09
2019-05-13T04:37:52.803Z,5.09
2019-05-13T04:38:52.807Z,5.18
2019-05-13T04:39:56.149Z,5.25
2019-05-13T04:40:52.874Z,5.22
2019-05-13T04:41:52.875Z,5.27
2019-05-13T04:42:53.396Z,5.30
2019-05-13T04:43:54.083Z,5.40
2019-05-13T04:44:53.228Z,5.40
2019-05-13T04:45:52.617Z,5.43
2019-05-13T04:46:52.373Z,5.45
2019-05-13T04:47:52.862Z,5.43
2019-05-13T04:48:53.100Z,5.56
2019-05-13T04:49:53.410Z,5.51
2019-05-13T04:50:53.285Z,5.53
2019-05-13T04:51:52.346Z,5.54
2019-05-13T04:52:52.474Z,5.64
2019-05-13T04:53:56.109Z,5.71
2019-05-13T04:54:52.835Z,5.79
2019-05-13T04:55:52.665Z,5.85
2019-05-13T04:56:52.580Z,5.86
2019-05-13T04:57:53.266Z,5.90
2019-05-13T04:58:52.746Z,6.01
2019-05-13T04:59:54.854Z,5.97
2019-05-13T05:01:02.152Z,5.99
2019-05-13T05:01:57.828Z,6.06
2019-05-13T05:02:55.074Z,6.11
2019-05-13T05:03:53.092Z,6.11
2019-05-13T05:04:52.474Z,6.17
2019-05-13T05:05:52.670Z,6.27
2019-05-13T05:06:52.639Z,6.40
2019-05-13T05:07:52.533Z,6.30
2019-05-13T05:08:52.528Z,6.27
2019-05-13T05:10:29.345Z,6.44
2019-05-13T05:10:53.852Z,6.54
2019-05-13T05:11:52.914Z,6.56
2019-05-13T05:12:51.940Z,6.66
2019-05-13T05:13:53.080Z,6.77
2019-05-13T05:14:52.275Z,6.87
2019-05-13T05:15:52.259Z,6.95
2019-05-13T05:16:52.294Z,7.15
2019-05-13T05:17:52.218Z,7.40
2019-05-13T05:18:52.621Z,7.83
2019-05-13T05:19:52.467Z,8.84
2019-05-13T05:20:51.922Z,9.94
2019-05-13T05:21:52.726Z,11.09
2019-05-13T05:22:51.237Z,11.55
2019-05-13T05:23:51.533Z,12.32
2019-05-13T05:24:52.050Z,12.96
2019-05-13T05:25:52.201Z,13.57
2019-05-13T05:26:52.168Z,13.11
2019-05-13T05:27:51.437Z,12.87
2019-05-13T05:28:51.909Z,13.32
2019-05-13T05:29:51.618Z,13.62
2019-05-13T05:30:51.892Z,13.54
2019-05-13T05:31:51.956Z,13.66
2019-05-13T05:32:51.837Z,13.62
2019-05-13T05:33:51.645Z,13.59
2019-05-13T05:34:51.878Z,13.48
2019-05-13T05:35:52.055Z,13.38
2019-05-13T05:36:52.075Z,13.01
2019-05-13T05:37:52.238Z,13.63
2019-05-13T05:38:51.427Z,14.02
2019-05-13T05:39:51.261Z,14.20
2019-05-13T05:40:51.099Z,14.17
2019-05-13T05:41:51.421Z,14.22
2019-05-13T05:42:51.790Z,14.22
2019-05-13T05:43:52.170Z,13.87
2019-05-13T05:44:51.812Z,13.96
2019-05-13T05:45:51.265Z,14.20
2019-05-13T05:46:51.517Z,14.07
2019-05-13T05:47:51.135Z,13.92
2019-05-13T05:48:52.786Z,13.91
2019-05-13T05:49:51.628Z,14.20
2019-05-13T05:50:51.540Z,14.60
2019-05-13T05:51:51.521Z,14.24
2019-05-13T05:52:51.335Z,14.39
2019-05-13T05:53:51.680Z,14.40
2019-05-13T05:54:51.519Z,14.68
2019-05-13T05:55:51.806Z,14.42
2019-05-13T05:56:51.798Z,14.15
2019-05-13T05:57:52.114Z,14.40
2019-05-13T05:58:52.265Z,14.60
2019-05-13T05:59:51.728Z,14.28
2019-05-13T06:00:51.961Z,14.60
2019-05-13T06:01:52.375Z,15.17
2019-05-13T06:02:52.960Z,15.76
2019-05-13T06:03:49.582Z,16.17
2019-05-13T06:04:51.859Z,16.39
2019-05-13T06:05:51.234Z,16.70
2019-05-13T06:06:52.076Z,16.53
2019-05-13T06:07:51.444Z,16.35
2019-05-13T06:08:51.643Z,16.15
2019-05-13T06:09:51.539Z,16.48
2019-05-13T06:10:52.907Z,16.60
2019-05-13T06:11:49.406Z,16.71
2019-05-13T06:12:49.384Z,16.24
2019-05-13T06:13:53.841Z,16.58
2019-05-13T06:14:52.238Z,16.39
2019-05-13T06:15:51.431Z,16.35
2019-05-13T06:16:51.728Z,16.57
2019-05-13T06:17:51.645Z,16.89
2019-05-13T06:18:49.257Z,17.33
2019-05-13T06:19:51.218Z,17.86
2019-05-13T06:20:51.243Z,17.16
2019-05-13T06:21:51.359Z,17.48
2019-05-13T06:22:51.425Z,16.96
2019-05-13T06:23:51.679Z,16.61
2019-05-13T06:24:49.146Z,15.82
2019-05-13T06:25:49.108Z,15.96
2019-05-13T06:26:49.087Z,15.72
2019-05-13T06:27:51.107Z,15.74
2019-05-13T06:28:49.046Z,16.39
2019-05-13T06:29:50.324Z,16.89
2019-05-13T06:30:49.005Z,17.21
2019-05-13T06:31:48.996Z,17.46
2019-05-13T06:32:48.966Z,17.21
2019-05-13T06:33:51.300Z,17.40
2019-05-13T06:34:48.921Z,17.72
2019-05-13T06:35:48.903Z,18.11
2019-05-13T06:36:48.881Z,18.21
2019-05-13T06:37:48.859Z,18.21
2019-05-13T06:38:51.143Z,18.26
2019-05-13T06:39:51.097Z,18.32
2019-05-13T06:41:00.523Z,18.50
2019-05-13T06:41:48.777Z,18.32
2019-05-13T06:42:48.757Z,17.89
2019-05-13T06:43:48.737Z,17.12
2019-05-13T06:44:51.200Z,17.18
2019-05-13T06:45:51.220Z,17.79
2019-05-13T06:46:48.676Z,17.77
2019-05-13T06:47:48.664Z,17.95
2019-05-13T06:48:48.636Z,18.15
2019-05-13T06:49:48.616Z,18.47
2019-05-13T06:50:48.598Z,18.76
2019-05-13T06:51:48.577Z,19.13
2019-05-13T06:52:48.595Z,18.92
2019-05-13T06:53:48.537Z,18.14
2019-05-13T06:54:48.518Z,18.29
2019-05-13T06:55:48.499Z,17.82
2019-05-13T06:56:48.481Z,18.21
2019-05-13T06:57:48.459Z,17.54
2019-05-13T06:58:48.441Z,17.51
2019-05-13T06:59:48.423Z,17.51
2019-05-13T07:00:48.404Z,17.59
2019-05-13T07:01:48.402Z,17.59
2019-05-13T07:02:48.366Z,18.03
2019-05-13T07:03:48.348Z,18.14
2019-05-13T07:04:48.325Z,17.81
2019-05-13T07:05:48.307Z,17.84
2019-05-13T07:06:48.287Z,18.10
2019-05-13T07:07:48.268Z,17.81
2019-05-13T07:08:48.250Z,17.97
2019-05-13T07:09:48.229Z,17.49
2019-05-13T07:10:48.210Z,17.75
2019-05-13T07:11:48.216Z,17.97
2019-05-13T07:12:48.172Z,17.43
2019-05-13T07:13:48.151Z,17.38
2019-05-13T07:14:48.132Z,17.68
2019-05-13T07:15:48.113Z,17.81
2019-05-13T07:16:48.099Z,17.81
2019-05-13T07:17:48.074Z,18.11
2019-05-13T07:18:48.055Z,18.50
2019-05-13T07:19:48.036Z,18.94
2019-05-13T07:20:48.016Z,18.52
2019-05-13T07:21:47.997Z,19.16
2019-05-13T07:22:47.978Z,18.80
2019-05-13T07:23:51.089Z,18.91
2019-05-13T07:24:47.938Z,18.99
2019-05-13T07:25:47.919Z,19.16
2019-05-13T07:26:47.900Z,19.47
2019-05-13T07:27:47.881Z,19.10
2019-05-13T07:28:47.862Z,19.51
2019-05-13T07:29:47.842Z,19.76
2019-05-13T07:30:47.824Z,19.98
2019-05-13T07:31:47.805Z,19.48
2019-05-13T07:32:47.790Z,19.39
2019-05-13T07:33:47.779Z,19.65
2019-05-13T07:34:47.765Z,19.13
2019-05-13T07:35:47.759Z,18.45
2019-05-13T07:36:47.715Z,18.21
2019-05-13T07:37:47.693Z,18.42
2019-05-13T07:38:47.674Z,18.85
2019-05-13T07:39:47.655Z,19.16
2019-05-13T07:40:47.636Z,18.92
2019-05-13T07:41:47.617Z,18.88
2019-05-13T07:42:47.597Z,18.81
2019-05-13T07:43:47.579Z,19.55
2019-05-13T07:44:47.563Z,19.77
2019-05-13T07:45:47.540Z,20.05
2019-05-13T07:46:47.525Z,19.95
2019-05-13T07:47:47.505Z,20.16
2019-05-13T07:48:47.486Z,20.32
2019-05-13T07:49:47.466Z,20.14
2019-05-13T07:50:59.069Z,20.28
2019-05-13T07:51:47.429Z,19.88
2019-05-13T07:52:47.412Z,19.83
2019-05-13T07:53:47.396Z,19.63
2019-05-13T07:54:47.374Z,19.51
2019-05-13T07:55:47.357Z,20.10
2019-05-13T07:56:47.337Z,20.32
2019-05-13T07:57:47.319Z,20.21
2019-05-13T07:58:47.298Z,19.83
2019-05-13T07:59:47.282Z,19.19
2019-05-13T08:00:47.265Z,19.21
2019-05-13T08:01:47.246Z,19.56
2019-05-13T08:02:47.226Z,19.71
2019-05-13T08:03:47.210Z,20.17
2019-05-13T08:04:49.404Z,20.01
2019-05-13T08:05:47.169Z,19.88
2019-05-13T08:06:47.161Z,20.03
2019-05-13T08:07:47.135Z,20.69
2019-05-13T08:08:47.115Z,20.66
2019-05-13T08:09:47.098Z,20.92
2019-05-13T08:10:47.079Z,20.48
2019-05-13T08:12:02.204Z,20.16
2019-05-13T08:12:47.044Z,19.91
2019-05-13T08:13:47.025Z,19.66
2019-05-13T08:14:47.010Z,19.62
2019-05-13T08:15:46.990Z,19.96
2019-05-13T08:16:46.972Z,20.70
2019-05-13T08:17:48.006Z,20.94
2019-05-13T08:18:46.937Z,20.77
2019-05-13T08:19:46.917Z,21.32
2019-05-13T08:20:46.900Z,21.38
2019-05-13T08:21:46.882Z,21.21
2019-05-13T08:22:46.865Z,21.64
2019-05-13T08:23:46.847Z,21.29
2019-05-13T08:24:46.834Z,21.04
2019-05-13T08:25:46.814Z,20.24
2019-05-13T08:26:49.988Z,19.96
2019-05-13T08:27:46.776Z,20.28
2019-05-13T08:29:00.151Z,20.77
2019-05-13T08:29:46.741Z,21.03
2019-05-13T08:30:46.723Z,20.76
2019-05-13T08:31:46.705Z,20.39
2019-05-13T08:32:46.688Z,20.57
2019-05-13T08:33:46.671Z,20.77
2019-05-13T08:34:52.533Z,20.76
2019-05-13T08:35:46.998Z,21.37
2019-05-13T08:36:46.620Z,21.56
2019-05-13T08:37:46.599Z,21.61
2019-05-13T08:38:46.583Z,21.65
2019-05-13T08:39:46.564Z,21.10
2019-05-13T08:40:46.548Z,20.59
2019-05-13T08:41:46.530Z,20.77
2019-05-13T08:42:46.513Z,20.66
2019-05-13T08:43:46.496Z,20.74
2019-05-13T08:44:46.482Z,20.32
2019-05-13T08:45:46.464Z,20.88
2019-05-13T08:46:46.471Z,20.79
2019-05-13T08:47:46.427Z,20.50
2019-05-13T08:48:46.411Z,20.29
2019-05-13T08:49:46.392Z,20.74
2019-05-13T08:50:46.376Z,21.06
2019-05-13T08:51:46.360Z,20.88
2019-05-13T08:52:46.342Z,20.85
2019-05-13T08:53:46.322Z,21.25
2019-05-13T08:54:46.306Z,20.91
2019-05-13T08:55:46.292Z,21.07
2019-05-13T08:56:46.275Z,21.12
2019-05-13T08:57:46.254Z,21.27
2019-05-13T08:58:46.237Z,21.56
2019-05-13T08:59:46.220Z,21.21
2019-05-13T09:00:46.201Z,21.29
2019-05-13T09:01:46.185Z,21.56
2019-05-13T09:02:46.169Z,21.58
2019-05-13T09:03:46.150Z,21.53
2019-05-13T09:04:46.133Z,21.38
2019-05-13T09:05:46.120Z,21.19
2019-05-13T09:06:46.102Z,21.24
2019-05-13T09:07:46.081Z,21.25
2019-05-13T09:08:46.065Z,21.44
2019-05-13T09:09:46.050Z,21.56
2019-05-13T09:10:46.029Z,21.42
2019-05-13T09:11:46.021Z,21.68
2019-05-13T09:12:45.995Z,21.86
2019-05-13T09:13:45.977Z,21.92
2019-05-13T09:14:45.961Z,21.84
2019-05-13T09:15:45.944Z,21.80
2019-05-13T09:16:45.926Z,22.10
2019-05-13T09:17:45.909Z,21.88
2019-05-13T09:18:45.891Z,21.84
2019-05-13T09:19:45.875Z,22.02
2019-05-13T09:20:45.859Z,21.74
2019-05-13T09:21:45.842Z,21.88
2019-05-13T09:22:45.829Z,22.05
2019-05-13T09:23:45.806Z,21.82
2019-05-13T09:24:45.790Z,21.92
2019-05-13T09:25:45.772Z,21.92
2019-05-13T09:26:45.773Z,21.58
2019-05-13T09:27:45.743Z,20.77
2019-05-13T09:28:45.721Z,21.13
2019-05-13T09:29:45.702Z,21.06
2019-05-13T09:30:45.687Z,21.44
2019-05-13T09:31:45.670Z,21.62
2019-05-13T09:32:45.653Z,21.67
2019-05-13T09:33:45.635Z,22.06
2019-05-13T09:34:45.619Z,21.98
2019-05-13T09:35:45.602Z,22.35
2019-05-13T09:36:45.585Z,22.35
2019-05-13T09:37:45.568Z,21.90
2019-05-13T09:38:45.558Z,21.53
2019-05-13T09:39:45.533Z,21.96
2019-05-13T09:40:45.521Z,21.53
2019-05-13T09:41:45.504Z,21.42
2019-05-13T09:42:51.576Z,21.84
2019-05-13T09:43:45.467Z,22.09
2019-05-13T09:44:45.449Z,21.91
2019-05-13T09:45:45.432Z,21.84
2019-05-13T09:46:45.415Z,21.68
2019-05-13T09:47:45.400Z,20.94
2019-05-13T09:48:45.385Z,21.16
2019-05-13T09:49:45.367Z,21.79
2019-05-13T09:50:45.349Z,22.10
2019-05-13T09:51:45.333Z,22.57
2019-05-13T09:52:45.320Z,21.98
2019-05-13T09:53:45.300Z,21.44
2019-05-13T09:54:45.283Z,21.19
2019-05-13T09:55:45.271Z,21.34
2019-05-13T09:56:45.250Z,21.44
2019-05-13T09:57:45.237Z,21.09
2019-05-13T09:58:45.218Z,21.59
2019-05-13T09:59:45.199Z,21.32
2019-05-13T10:00:45.183Z,20.73
2019-05-13T10:01:45.166Z,20.84
2019-05-13T10:02:45.149Z,21.37
2019-05-13T10:03:56.976Z,21.91
2019-05-13T10:04:45.126Z,22.43
2019-05-13T10:05:45.097Z,22.86
2019-05-13T10:06:45.080Z,22.92
2019-05-13T10:07:45.064Z,22.35
2019-05-13T10:08:45.053Z,21.56
2019-05-13T10:09:48.273Z,21.77
2019-05-13T10:10:45.012Z,22.55
2019-05-13T10:11:45.001Z,22.61
2019-05-13T10:12:44.979Z,20.76
2019-05-13T10:13:44.964Z,20.66
2019-05-13T10:14:44.946Z,20.79
2019-05-13T10:15:48.737Z,21.10
2019-05-13T10:16:44.912Z,20.69
2019-05-13T10:17:44.895Z,20.10
2019-05-13T10:18:44.878Z,20.48
2019-05-13T10:19:44.862Z,20.79
2019-05-13T10:20:44.841Z,20.02
2019-05-13T10:21:44.824Z,20.33
2019-05-13T10:22:44.806Z,20.74
2019-05-13T10:23:44.789Z,21.17
2019-05-13T10:24:44.772Z,21.37
2019-05-13T10:25:44.750Z,21.80
2019-05-13T10:26:44.733Z,21.54
2019-05-13T10:27:44.717Z,22.09
2019-05-13T10:28:44.697Z,22.51
2019-05-13T10:29:44.679Z,22.95
2019-05-13T10:30:44.664Z,22.72
2019-05-13T10:31:44.647Z,21.35
2019-05-13T10:32:44.629Z,20.79
2019-05-13T10:33:44.611Z,19.76
2019-05-13T10:34:44.590Z,18.85
2019-05-13T10:35:44.574Z,19.14
2019-05-13T10:36:44.555Z,20.18
2019-05-13T10:37:44.543Z,20.77
2019-05-13T10:38:44.524Z,21.53
2019-05-13T10:39:44.499Z,21.53
2019-05-13T10:40:44.485Z,21.65
2019-05-13T10:41:44.477Z,22.14
2019-05-13T10:42:44.444Z,22.42
2019-05-13T10:43:44.638Z,22.10
2019-05-13T10:44:44.408Z,22.37
2019-05-13T10:45:44.389Z,21.88
2019-05-13T10:46:44.374Z,22.21
2019-05-13T10:47:44.354Z,22.86
2019-05-13T10:48:44.337Z,22.94
2019-05-13T10:49:44.318Z,23.04
2019-05-13T10:50:44.301Z,23.32
2019-05-13T10:51:44.286Z,23.53
2019-05-13T10:52:44.306Z,23.91
2019-05-13T10:53:44.251Z,24.05
2019-05-13T10:54:44.231Z,23.83
2019-05-13T10:55:44.215Z,24.00
2019-05-13T10:56:44.198Z,23.58
2019-05-13T10:57:44.180Z,23.42
2019-05-13T10:58:44.165Z,23.39
2019-05-13T10:59:44.147Z,23.61
2019-05-13T11:00:44.138Z,23.80
2019-05-13T11:01:44.133Z,23.15
2019-05-13T11:02:44.102Z,23.32
2019-05-13T11:03:44.078Z,23.47
2019-05-13T11:04:44.063Z,22.83
2019-05-13T11:05:44.816Z,22.27
2019-05-13T11:06:44.028Z,22.45
2019-05-13T11:07:44.011Z,22.21
2019-05-13T11:08:44.005Z,22.36
2019-05-13T11:09:43.978Z,22.94
2019-05-13T11:10:43.966Z,23.25
2019-05-13T11:11:43.945Z,21.98
2019-05-13T11:12:43.927Z,22.22
2019-05-13T11:13:54.347Z,22.33
2019-05-13T11:14:46.645Z,22.49
2019-05-13T11:15:45.314Z,22.62
2019-05-13T11:16:43.859Z,22.52
2019-05-13T11:17:43.843Z,21.52
2019-05-13T11:18:43.827Z,21.59
2019-05-13T11:19:43.808Z,21.88
2019-05-13T11:20:43.792Z,22.47
2019-05-13T11:21:44.446Z,22.75
2019-05-13T11:22:43.756Z,22.62
2019-05-13T11:23:43.752Z,22.57
2019-05-13T11:24:43.731Z,22.15
2019-05-13T11:25:43.703Z,22.40
2019-05-13T11:26:43.687Z,22.70
2019-05-13T11:27:43.672Z,23.05
2019-05-13T11:28:43.652Z,23.38
2019-05-13T11:29:43.637Z,23.43
2019-05-13T11:30:43.617Z,23.02
2019-05-13T11:31:43.600Z,23.50
2019-05-13T11:32:43.583Z,23.20
2019-05-13T11:33:43.565Z,23.65
2019-05-13T11:34:43.548Z,23.66
2019-05-13T11:35:43.530Z,23.50
2019-05-13T11:36:43.667Z,23.78
2019-05-13T11:37:43.665Z,23.60
2019-05-13T11:38:43.590Z,23.79
2019-05-13T11:39:43.462Z,23.36
2019-05-13T11:40:43.445Z,21.90
2019-05-13T11:41:43.428Z,21.01
2019-05-13T11:42:43.409Z,20.52
2019-05-13T11:43:43.394Z,19.95
2019-05-13T11:44:43.376Z,19.37
2019-05-13T11:45:43.357Z,19.10
2019-05-13T11:46:43.396Z,20.38
2019-05-13T11:47:43.323Z,21.37
2019-05-13T11:48:43.303Z,21.92
2019-05-13T11:49:43.283Z,22.67
2019-05-13T11:50:50.057Z,23.42
2019-05-13T11:51:43.248Z,24.00
2019-05-13T11:52:43.244Z,24.45
2019-05-13T11:53:43.214Z,23.93
2019-05-13T11:54:43.194Z,23.13
2019-05-13T11:55:43.178Z,23.32
2019-05-13T11:56:49.219Z,22.47
2019-05-13T11:57:44.395Z,21.34
2019-05-13T11:58:43.378Z,20.51
2019-05-13T11:59:43.322Z,20.36
2019-05-13T12:00:43.096Z,21.22
2019-05-13T12:01:43.090Z,21.86
2019-05-13T12:02:50.245Z,22.31
2019-05-13T12:03:43.633Z,22.55
2019-05-13T12:04:43.910Z,22.94
2019-05-13T12:05:42.998Z,23.50
2019-05-13T12:06:48.563Z,23.78
2019-05-13T12:07:42.961Z,23.91
2019-05-13T12:08:50.434Z,23.61
2019-05-13T12:09:42.926Z,23.51
2019-05-13T12:10:43.952Z,22.72
2019-05-13T12:11:42.891Z,22.25
2019-05-13T12:12:43.943Z,21.65
2019-05-13T12:13:42.854Z,21.25
2019-05-13T12:15:05.069Z,20.72
2019-05-13T12:15:48.904Z,20.03
2019-05-13T12:16:42.800Z,20.76
2019-05-13T12:17:43.131Z,21.72
2019-05-13T12:18:43.853Z,22.47
2019-05-13T12:19:42.745Z,22.37
2019-05-13T12:20:42.930Z,22.98
2019-05-13T12:21:46.430Z,23.73
2019-05-13T12:22:42.871Z,23.36
2019-05-13T12:23:42.929Z,22.37
2019-05-13T12:24:42.655Z,22.76
2019-05-13T12:25:43.786Z,22.05
2019-05-13T12:26:43.645Z,21.92
2019-05-13T12:27:42.601Z,21.69
2019-05-13T12:28:42.585Z,22.27
2019-05-13T12:29:43.169Z,22.77
2019-05-13T12:30:42.547Z,23.16
2019-05-13T12:31:42.527Z,23.61
2019-05-13T12:32:43.726Z,24.34
2019-05-13T12:33:44.040Z,24.50
2019-05-13T12:34:45.929Z,24.35
2019-05-13T12:35:42.455Z,24.12
2019-05-13T12:36:43.353Z,23.76
2019-05-13T12:37:42.424Z,24.05
2019-05-13T12:38:44.334Z,24.28
2019-05-13T12:39:43.889Z,24.47
2019-05-13T12:40:43.088Z,24.43
2019-05-13T12:41:43.021Z,24.52
2019-05-13T12:42:46.843Z,24.77
2019-05-13T12:43:42.728Z,24.43
2019-05-13T12:45:00.520Z,24.87
2019-05-13T12:45:43.290Z,24.39
2019-05-13T12:46:49.350Z,24.24
2019-05-13T12:47:43.241Z,24.27
2019-05-13T12:48:42.228Z,23.98
2019-05-13T12:50:43.171Z,23.16
2019-05-13T12:51:44.040Z,21.61
2019-05-13T12:52:43.697Z,20.77
2019-05-13T12:53:43.428Z,20.73
2019-05-13T12:54:43.805Z,21.42
2019-05-13T12:55:42.107Z,22.30
2019-05-13T12:56:42.716Z,23.19
2019-05-13T12:57:42.071Z,23.83
2019-05-13T12:58:42.053Z,23.72
2019-05-13T12:59:43.612Z,23.78
2019-05-13T13:00:43.423Z,22.76
2019-05-13T13:01:42.000Z,22.12
2019-05-13T13:02:49.934Z,21.38
2019-05-13T13:03:41.965Z,20.89